Detall de PIREP

Printer-friendly versionPDF version

[2010/08/31 07:59:00]
Flight IATA:CT3404
Pilot Number:011
Company ICAO:CAT
Aircraft Type:B738/F
PAX:160
Departing Airport: LEBL
Destination Airport: GCLP
Alternate Airport:GCXO
Online: VATSIM
Route:LOTOS UM985 YES UN747 SVL UN857 TERTO
Flight Level:FL350
No Slew and time accel
No pause
Crash detect
Detect pilot in Cockpit between each 30 and 45 minutes
07:59 Zero fuel Weight: 132501 Lbs, Fuel Weight: 27634 Lbs
07:59 VATSIM:LEBL 310730Z 34006KT 260V050 9999 FEW030 SCT049 21/14 Q1016 NOSIG
07:59 VATSIM:GCLP 310730Z 02014KT 9999 FEW020 23/20 Q1011 NOSIG
08:03 Parking Brakes off
08:17 Take-off
08:17 Take off Weight: 158977 Lbs
08:17 Wind: 048º @ 003 Knots Heading: 244º
08:17 POS N41º 17´ 55´´ E002º 05´ 00´´
08:17 Flaps:4 at 184 Knots
08:17 Gear Up: 186 Knots
08:18 Flaps:3 at 227 Knots
08:18 Flaps:2 at 230 Knots
08:18 Flaps:1 at 234 Knots
08:19 Flaps:0 at 235 Knots
08:32 Wind:049º@014 Knots Heading: 229º Ground Speed: 452 Knots Altitude 31961 ft
08:34 TOC
08:34 Fuel Weight: 22904 Lb
08:47 Wind:128º@032 Knots Heading: 230º Ground Speed: 485 Knots Altitude 35068 ft
10:02 Wind:275º@012 Knots Heading: 219º Ground Speed: 466 Knots Altitude 34908 ft
10:17 Wind:298º@007 Knots Heading: 217º Ground Speed: 470 Knots Altitude 34934 ft
10:32 Wind:125º@014 Knots Heading: 215º Ground Speed: 473 Knots Altitude 34957 ft
10:39 TOD
10:39 Fuel Weight: 12197 Lb
10:47 Wind:066º@016 Knots Heading: 218º Ground Speed: 396 Knots Altitude 22713 ft
11:02 Wind:019º@035 Knots Heading: 266º Ground Speed: 288 Knots Altitude 4881 ft
11:04 Flaps:1 at 262 Knots
11:04 Flaps:2 at 239 Knots
11:05 Flaps:3 at 232 Knots
11:05 Flaps:4 at 210 Knots
11:06 Flaps:5 at 203 Knots
11:06 Gear Down: 202 Knots
11:06 Flaps:6 at 202 Knots
11:06 Flaps:7 at 201 Knots
11:06 Flaps:8 at 200 Knots
11:10 TouchDown:Rate -86 ft/min Speed: 115 Knots
11:10 VATSIM:GCLP 311100Z 02014KT 340V050 CAVOK 29/20 Q1012 NOSIG
11:11 Land
11:11 Wind:033º@014 Knots
11:11 Heading: 021º
11:11 Flight Duration: 02:54
11:11 Landing Weight: 142983 Lbs
11:11 POS N27º 56´ 02´´ W015º 23´ 08´´
11:13 Parking brakes on
11:13 Block to Block Duration: 03:10
11:13 Final Fuel: 10260 Lbls
11:13 Spent Fuel: 17374 Lbls
11:13 Flight Length: 790 NM
11:13 TOD Land Length: 167 NM

Exportar CSV

Powered by Drupal - Modified by Danger4k